createdAt,value
2022-08-19T00:03:28.651Z,100526.50
2022-08-19T00:08:30.322Z,100532.81
2022-08-19T00:13:31.975Z,100529.66
2022-08-19T00:18:34.139Z,100527.28
2022-08-19T00:23:37.199Z,100524.16
2022-08-19T00:28:38.936Z,100526.03
2022-08-19T00:33:40.596Z,100518.56
2022-08-19T00:38:43.824Z,100520.56
2022-08-19T00:44:11.353Z,100519.03
2022-08-19T00:49:20.392Z,100524.50
2022-08-19T00:54:24.855Z,100530.81
2022-08-19T01:00:01.210Z,100523.84
2022-08-19T01:04:54.513Z,100517.00
2022-08-19T01:09:56.184Z,100520.66
2022-08-19T01:14:57.867Z,100520.94
2022-08-19T01:20:00.751Z,100514.63
2022-08-19T01:25:02.486Z,100523.66
2022-08-19T01:30:06.702Z,100516.88
2022-08-19T01:35:08.766Z,100505.63
2022-08-19T01:40:11.056Z,100509.41
2022-08-19T01:45:12.785Z,100506.94
2022-08-19T01:50:14.554Z,100499.91
2022-08-19T01:55:18.482Z,100502.94
2022-08-19T02:00:21.014Z,100490.00
2022-08-19T02:05:22.692Z,100488.59
2022-08-19T02:10:24.471Z,100488.66
2022-08-19T02:15:26.730Z,100484.66
2022-08-19T02:20:28.408Z,100495.22
2022-08-19T02:25:30.400Z,100504.16
2022-08-19T02:30:32.349Z,100495.56
2022-08-19T02:35:34.064Z,100497.50
2022-08-19T02:40:35.831Z,100494.19
2022-08-19T02:45:41.528Z,100495.34
2022-08-19T02:50:53.257Z,100489.41
2022-08-19T02:55:55.347Z,100493.16
2022-08-19T03:00:57.353Z,100501.41
2022-08-19T03:06:07.263Z,100511.16
2022-08-19T03:11:20.853Z,100501.72
2022-08-19T03:16:24.515Z,100506.91
2022-08-19T03:21:26.662Z,100503.53
2022-08-19T03:26:28.362Z,100501.34
2022-08-19T03:31:43.664Z,100500.53
2022-08-19T03:36:51.918Z,100511.97
2022-08-19T03:42:30.110Z,100498.94
2022-08-19T03:47:16.577Z,100491.69
2022-08-19T03:52:18.298Z,100513.94
2022-08-19T03:57:19.991Z,100518.53
2022-08-19T04:02:22.323Z,100513.38
2022-08-19T04:07:23.984Z,100514.28
2022-08-19T04:12:25.647Z,100504.56
2022-08-19T04:17:27.325Z,100508.31
2022-08-19T04:22:28.983Z,100518.22
2022-08-19T04:27:32.131Z,100520.94
2022-08-19T04:32:33.788Z,100524.75
2022-08-19T04:37:35.887Z,100533.38
2022-08-19T04:42:40.264Z,100536.28
2022-08-19T04:47:47.045Z,100542.53
2022-08-19T04:52:52.228Z,100543.41
2022-08-19T04:57:54.856Z,100548.91
2022-08-19T05:02:56.528Z,100549.91
2022-08-19T05:07:58.196Z,100544.69
2022-08-19T05:12:59.960Z,100537.53
2022-08-19T05:18:20.277Z,100544.28
2022-08-19T05:23:23.131Z,100547.72
2022-08-19T05:28:24.830Z,100545.25
2022-08-19T05:33:26.492Z,100547.75
2022-08-19T05:38:28.363Z,100533.72
2022-08-19T05:43:30.046Z,100528.63
2022-08-19T05:48:32.323Z,100523.41
2022-08-19T05:53:34.512Z,100523.34
2022-08-19T05:58:39.355Z,100535.63
2022-08-19T06:03:41.301Z,100526.78
2022-08-19T06:08:43.992Z,100526.56
2022-08-19T06:13:51.730Z,100537.94
2022-08-19T06:18:54.028Z,100530.94
2022-08-19T06:23:56.215Z,100548.56
2022-08-19T06:28:57.906Z,100541.50
2022-08-19T06:33:59.542Z,100554.38
2022-08-19T06:39:02.568Z,100561.50
2022-08-19T06:44:04.449Z,100569.34
2022-08-19T06:49:06.257Z,100572.84
2022-08-19T06:54:08.159Z,100581.63
2022-08-19T06:59:22.337Z,100579.84
2022-08-19T07:04:28.734Z,100584.97
2022-08-19T07:09:30.403Z,100587.59
2022-08-19T07:14:32.240Z,100600.81
2022-08-19T07:19:34.107Z,100607.66
2022-08-19T07:24:35.990Z,100617.19
2022-08-19T07:29:37.665Z,100633.78
2022-08-19T07:34:40.055Z,100640.59
2022-08-19T07:39:41.830Z,100639.47
2022-08-19T07:44:49.953Z,100646.47
2022-08-19T07:49:52.672Z,100651.75
2022-08-19T07:54:54.349Z,100660.44
2022-08-19T07:59:56.035Z,100655.28
2022-08-19T08:05:16.362Z,100654.28
2022-08-19T08:10:20.549Z,100663.06
2022-08-19T08:15:23.092Z,100674.19
2022-08-19T08:20:26.856Z,100662.03
2022-08-19T08:25:28.542Z,100660.03
2022-08-19T08:30:37.014Z,100661.56
2022-08-19T08:35:39.833Z,100652.84
2022-08-19T08:40:49.588Z,100656.34
2022-08-19T08:46:16.304Z,100655.34
2022-08-19T08:51:47.610Z,100647.06
2022-08-19T08:56:50.320Z,100658.56
2022-08-19T09:01:53.459Z,100668.06
2022-08-19T09:07:35.421Z,100665.53
2022-08-19T09:12:59.027Z,100662.47
2022-08-19T09:18:04.664Z,100656.22
2022-08-19T09:23:09.171Z,100656.28
2022-08-19T09:28:15.048Z,100655.47
2022-08-19T09:33:24.434Z,100658.78
2022-08-19T09:38:26.189Z,100663.91
2022-08-19T09:43:33.873Z,100670.72
2022-08-19T09:48:46.932Z,100678.59
2022-08-19T09:53:51.002Z,100687.34
2022-08-19T09:58:54.625Z,100693.56
2022-08-19T10:03:57.197Z,100696.59
2022-08-19T10:08:58.882Z,100689.78
2022-08-19T10:14:01.440Z,100683.56
2022-08-19T10:19:03.797Z,100687.75
2022-08-19T10:24:09.475Z,100691.50
2022-08-19T10:29:12.439Z,100692.09
2022-08-19T10:34:26.842Z,100688.94
2022-08-19T10:39:43.382Z,100672.31
2022-08-19T10:44:45.458Z,100667.28
2022-08-19T10:50:08.801Z,100658.06
2022-08-19T10:55:32.394Z,100660.72
2022-08-19T11:00:35.069Z,100667.69
2022-08-19T11:05:40.403Z,100655.34
2022-08-19T11:10:43.726Z,100652.03
2022-08-19T11:16:02.817Z,100642.72
2022-08-19T11:21:09.731Z,100622.75
2022-08-19T11:26:11.604Z,100623.91
2022-08-19T11:31:14.307Z,100618.44
2022-08-19T11:36:17.027Z,100620.63
2022-08-19T11:41:19.547Z,100614.88
2022-08-19T11:46:21.210Z,100633.78
2022-08-19T11:51:25.399Z,100618.59
2022-08-19T11:56:27.493Z,100627.66
2022-08-19T12:01:29.156Z,100645.75
2022-08-19T12:06:32.632Z,100637.25
2022-08-19T12:11:34.587Z,100634.19
2022-08-19T12:16:39.830Z,100630.94
2022-08-19T12:21:46.364Z,100632.94
2022-08-19T12:26:53.425Z,100627.78
2022-08-19T12:32:01.403Z,100629.88
2022-08-19T12:37:04.024Z,100635.25
2022-08-19T12:42:06.713Z,100632.06
2022-08-19T12:47:09.119Z,100633.09
2022-08-19T12:52:11.793Z,100634.53
2022-08-19T12:57:16.246Z,100625.03
2022-08-19T13:02:18.285Z,100614.63
2022-08-19T13:07:20.238Z,100607.03
2022-08-19T13:12:24.943Z,100616.03
2022-08-19T13:17:27.009Z,100615.03
2022-08-19T13:22:28.694Z,100615.63
2022-08-19T13:27:30.502Z,100614.53
2022-08-19T13:32:50.508Z,100612.91
2022-08-19T13:37:52.716Z,100607.06
2022-08-19T13:42:55.221Z,100606.88
2022-08-19T13:47:59.656Z,100604.06
2022-08-19T13:53:03.317Z,100602.94
2022-08-19T13:58:05.604Z,100609.00
2022-08-19T14:03:09.264Z,100609.94
2022-08-19T14:08:11.297Z,100606.75
2022-08-19T14:13:15.674Z,100608.13
2022-08-19T14:18:18.338Z,100596.56
2022-08-19T14:23:20.951Z,100597.34
2022-08-19T14:28:23.221Z,100589.66
2022-08-19T14:33:30.654Z,100591.22
2022-08-19T14:38:32.419Z,100584.03
2022-08-19T14:43:34.383Z,100580.47
2022-08-19T14:48:37.594Z,100582.44
2022-08-19T14:53:43.212Z,100579.94
2022-08-19T14:58:45.286Z,100573.22
2022-08-19T15:03:47.057Z,100582.47
2022-08-19T15:08:48.875Z,100574.63
2022-08-19T15:13:50.942Z,100573.91
2022-08-19T15:18:54.293Z,100576.44
2022-08-19T15:23:57.836Z,100582.44
2022-08-19T15:29:00.579Z,100590.50
2022-08-19T15:34:02.890Z,100574.25
2022-08-19T15:39:05.668Z,100584.34
2022-08-19T15:44:12.160Z,100578.69
2022-08-19T15:49:15.463Z,100582.09
2022-08-19T15:54:19.479Z,100585.38
2022-08-19T15:59:40.871Z,100592.00
2022-08-19T16:05:07.798Z,100590.53
2022-08-19T16:10:26.437Z,100582.34
2022-08-19T16:15:30.478Z,100577.94
2022-08-19T16:20:35.915Z,100564.91
2022-08-19T16:25:39.306Z,100567.19
2022-08-19T16:30:41.350Z,100551.13
2022-08-19T16:35:43.031Z,100560.53
2022-08-19T16:40:54.594Z,100561.81
2022-08-19T16:45:56.280Z,100575.97
2022-08-19T16:50:57.962Z,100568.72
2022-08-19T16:55:59.680Z,100560.47
2022-08-19T17:01:06.308Z,100558.22
2022-08-19T17:06:20.642Z,100565.94
2022-08-19T17:11:23.390Z,100574.50
2022-08-19T17:16:27.266Z,100571.09
2022-08-19T17:21:31.908Z,100565.53
2022-08-19T17:26:33.575Z,100570.63
2022-08-19T17:31:35.931Z,100561.75
2022-08-19T17:36:38.127Z,100565.91
2022-08-19T17:41:39.789Z,100569.97
2022-08-19T17:46:41.442Z,100574.13
2022-08-19T17:51:44.979Z,100586.09
2022-08-19T17:56:46.731Z,100574.81
2022-08-19T18:01:53.873Z,100575.94
2022-08-19T18:06:56.155Z,100581.53
2022-08-19T18:11:59.913Z,100588.31
2022-08-19T18:17:05.403Z,100590.78
2022-08-19T18:22:07.070Z,100588.53
2022-08-19T18:27:09.913Z,100588.22
2022-08-19T18:32:12.796Z,100577.56
2022-08-19T18:37:14.567Z,100576.06
2022-08-19T18:42:35.454Z,100579.72
2022-08-19T18:47:55.838Z,100584.22
2022-08-19T18:52:57.667Z,100604.50
2022-08-19T18:58:01.669Z,100604.25
2022-08-19T19:03:03.315Z,100610.19
2022-08-19T19:08:04.981Z,100605.59
2022-08-19T19:13:06.614Z,100612.66
2022-08-19T19:18:09.198Z,100616.50
2022-08-19T19:23:10.878Z,100626.25
2022-08-19T19:28:15.876Z,100633.84
2022-08-19T19:33:17.895Z,100633.53
2022-08-19T19:38:19.644Z,100626.63
2022-08-19T19:43:21.424Z,100636.06
2022-08-19T19:48:24.687Z,100647.94
2022-08-19T19:53:26.445Z,100661.59
2022-08-19T19:58:29.292Z,100658.53
2022-08-19T20:03:31.140Z,100669.84
2022-08-19T20:08:51.513Z,100685.34
2022-08-19T20:13:53.180Z,100684.78
2022-08-19T20:18:55.642Z,100673.63
2022-08-19T20:24:09.020Z,100682.88
2022-08-19T20:29:37.893Z,100682.31
2022-08-19T20:34:33.887Z,100691.53
2022-08-19T20:39:35.631Z,100682.09
2022-08-19T20:44:37.886Z,100685.69
2022-08-19T20:49:39.673Z,100686.75
2022-08-19T20:54:41.326Z,100678.03
2022-08-19T20:59:43.003Z,100664.88
2022-08-19T21:04:44.673Z,100682.59
2022-08-19T21:09:46.333Z,100692.38
2022-08-19T21:14:47.980Z,100703.94
2022-08-19T21:19:50.682Z,100692.44
2022-08-19T21:24:52.401Z,100697.75
2022-08-19T21:29:54.913Z,100707.66
2022-08-19T21:34:56.611Z,100700.81
2022-08-19T21:39:58.317Z,100705.44
2022-08-19T21:45:00.191Z,100701.94
2022-08-19T21:50:02.044Z,100708.22
2022-08-19T21:55:05.156Z,100700.34
2022-08-19T22:00:10.325Z,100703.16
2022-08-19T22:05:12.139Z,100698.84
2022-08-19T22:10:13.791Z,100702.50
2022-08-19T22:15:15.583Z,100700.06
2022-08-19T22:20:21.895Z,100694.00
2022-08-19T22:25:31.835Z,100686.44
2022-08-19T22:30:34.996Z,100684.28
2022-08-19T22:35:37.476Z,100676.66
2022-08-19T22:40:41.135Z,100683.75
2022-08-19T22:45:43.036Z,100680.13
2022-08-19T22:51:05.696Z,100684.34
2022-08-19T22:56:10.862Z,100677.38
2022-08-19T23:01:27.198Z,100682.72
2022-08-19T23:06:33.451Z,100674.81
2022-08-19T23:11:38.262Z,100679.38
2022-08-19T23:16:50.385Z,100679.38
2022-08-19T23:21:52.624Z,100673.25
2022-08-19T23:27:12.910Z,100674.09
2022-08-19T23:32:16.148Z,100675.88
2022-08-19T23:37:17.948Z,100682.13
2022-08-19T23:42:20.565Z,100674.28
2022-08-19T23:47:22.466Z,100684.03
2022-08-19T23:52:24.188Z,100674.56
2022-08-19T23:57:25.832Z,100676.56
